createdAt,value
2022-08-09T00:00:00.184Z,53.59
2022-08-09T00:02:29.057Z,53.87
2022-08-09T00:05:03.208Z,54.01
2022-08-09T00:07:44.650Z,53.76
2022-08-09T00:10:11.805Z,53.75
2022-08-09T00:12:51.727Z,53.70
2022-08-09T00:15:19.770Z,53.57
2022-08-09T00:18:09.353Z,53.55
2022-08-09T00:20:38.447Z,53.52
2022-08-09T00:23:56.723Z,53.60
2022-08-09T00:25:56.334Z,53.54
2022-08-09T00:28:23.019Z,53.61
2022-08-09T00:30:53.653Z,53.56
2022-08-09T00:33:49.084Z,53.48
2022-08-09T00:36:07.974Z,53.45
2022-08-09T00:38:34.939Z,53.47
2022-08-09T00:41:01.476Z,53.41
2022-08-09T00:44:15.997Z,53.39
2022-08-09T00:46:28.494Z,53.28
2022-08-09T00:49:02.398Z,53.31
2022-08-09T00:51:33.773Z,53.37
2022-08-09T00:54:00.637Z,53.29
2022-08-09T00:56:27.248Z,53.08
2022-08-09T00:58:53.711Z,53.26
2022-08-09T01:01:24.058Z,53.06
2022-08-09T01:04:08.612Z,53.12
2022-08-09T01:06:54.522Z,53.12
2022-08-09T01:09:36.558Z,53.20
2022-08-09T01:12:12.917Z,52.96
2022-08-09T01:14:45.094Z,53.20
2022-08-09T01:17:30.434Z,53.03
2022-08-09T01:20:03.141Z,52.96
2022-08-09T01:22:57.492Z,52.81
2022-08-09T01:25:37.501Z,52.75
2022-08-09T01:28:11.277Z,52.71
2022-08-09T01:30:51.325Z,52.76
2022-08-09T01:33:23.817Z,52.54
2022-08-09T01:35:57.623Z,52.47
2022-08-09T01:38:29.728Z,52.86
2022-08-09T01:41:04.766Z,52.51
2022-08-09T01:43:45.737Z,52.60
2022-08-09T01:46:24.699Z,52.48
2022-08-09T01:48:55.399Z,52.42
2022-08-09T01:51:23.799Z,52.30
2022-08-09T01:53:58.105Z,52.34
2022-08-09T01:56:27.064Z,51.91
2022-08-09T01:58:56.447Z,52.14
2022-08-09T02:01:57.638Z,52.17
2022-08-09T02:04:13.278Z,52.01
2022-08-09T02:06:45.306Z,52.04
2022-08-09T02:09:23.469Z,51.92
2022-08-09T02:11:50.931Z,51.98
2022-08-09T02:14:26.413Z,51.79
2022-08-09T02:17:15.238Z,51.83
2022-08-09T02:19:43.589Z,52.09
2022-08-09T02:22:16.783Z,51.90
2022-08-09T02:24:52.006Z,51.96
2022-08-09T02:27:27.452Z,51.97
2022-08-09T02:30:11.860Z,51.83
2022-08-09T02:32:43.471Z,51.82
2022-08-09T02:35:19.299Z,51.75
2022-08-09T02:37:54.318Z,51.66
2022-08-09T02:40:26.895Z,51.59
2022-08-09T02:42:55.582Z,51.28
2022-08-09T02:45:31.146Z,51.46
2022-08-09T02:48:02.872Z,51.29
2022-08-09T02:50:35.973Z,51.28
2022-08-09T02:53:07.652Z,51.22
2022-08-09T02:55:57.414Z,51.19
2022-08-09T02:58:35.538Z,51.27
2022-08-09T03:01:08.344Z,51.20
2022-08-09T03:04:12.799Z,51.19
2022-08-09T03:06:27.400Z,51.03
2022-08-09T03:08:55.290Z,51.02
2022-08-09T03:12:04.528Z,51.07
2022-08-09T03:14:11.784Z,50.80
2022-08-09T03:16:45.193Z,50.86
2022-08-09T03:19:58.827Z,50.73
2022-08-09T03:22:11.793Z,50.73
2022-08-09T03:24:42.754Z,50.68
2022-08-09T03:27:21.610Z,50.65
2022-08-09T03:29:57.846Z,50.66
2022-08-09T03:32:30.058Z,50.75
2022-08-09T03:34:57.152Z,50.77
2022-08-09T03:37:56.180Z,50.43
2022-08-09T03:40:13.094Z,50.60
2022-08-09T03:42:40.107Z,50.41
2022-08-09T03:45:10.485Z,50.24
2022-08-09T03:47:41.889Z,50.21
2022-08-09T03:50:12.266Z,50.10
2022-08-09T03:52:41.818Z,50.15
2022-08-09T03:55:14.313Z,50.22
2022-08-09T03:57:53.706Z,50.29
2022-08-09T04:00:29.425Z,50.02
2022-08-09T04:02:59.438Z,50.11
2022-08-09T04:05:28.080Z,49.99
2022-08-09T04:07:57.336Z,49.99
2022-08-09T04:10:29.657Z,50.04
2022-08-09T04:12:58.180Z,50.06
2022-08-09T04:15:52.224Z,50.01
2022-08-09T04:18:18.057Z,49.99
2022-08-09T04:20:46.445Z,49.87
2022-08-09T04:23:17.376Z,49.94
2022-08-09T04:25:44.783Z,49.92
2022-08-09T04:28:34.003Z,49.78
2022-08-09T04:31:08.303Z,49.83
2022-08-09T04:33:53.144Z,49.70
2022-08-09T04:36:25.522Z,49.72
2022-08-09T04:38:52.532Z,49.71
2022-08-09T04:41:19.231Z,49.74
2022-08-09T04:44:05.782Z,49.78
2022-08-09T04:46:37.698Z,49.83
2022-08-09T04:49:40.862Z,49.61
2022-08-09T04:52:09.636Z,49.66
2022-08-09T04:54:36.495Z,49.69
2022-08-09T04:57:03.919Z,49.62
2022-08-09T04:59:30.945Z,49.55
2022-08-09T05:01:57.687Z,49.70
2022-08-09T05:04:31.165Z,49.58
2022-08-09T05:06:57.962Z,49.33
2022-08-09T05:09:24.576Z,49.49
2022-08-09T05:11:51.435Z,49.30
2022-08-09T05:14:18.455Z,49.35
2022-08-09T05:16:58.998Z,49.32
2022-08-09T05:19:44.482Z,49.31
2022-08-09T05:22:35.078Z,49.35
2022-08-09T05:24:57.780Z,49.48
2022-08-09T05:27:29.120Z,49.44
2022-08-09T05:29:57.787Z,49.37
2022-08-09T05:32:25.730Z,49.37
2022-08-09T05:34:53.464Z,49.52
2022-08-09T05:37:19.995Z,49.25
2022-08-09T05:39:46.624Z,49.14
2022-08-09T05:42:18.063Z,49.44
2022-08-09T05:44:50.642Z,49.50
2022-08-09T05:47:17.985Z,49.76
2022-08-09T05:50:31.137Z,49.83
2022-08-09T05:52:32.711Z,50.09
2022-08-09T05:55:02.991Z,50.27
2022-08-09T05:57:55.424Z,50.20
2022-08-09T06:00:20.655Z,50.49
2022-08-09T06:02:48.925Z,50.72
2022-08-09T06:05:20.544Z,50.77
2022-08-09T06:08:05.396Z,50.97
2022-08-09T06:10:34.713Z,51.04
2022-08-09T06:13:12.199Z,51.27
2022-08-09T06:15:44.997Z,51.56
2022-08-09T06:18:13.780Z,51.54
2022-08-09T06:20:42.369Z,51.66
2022-08-09T06:23:12.076Z,51.92
2022-08-09T06:25:42.084Z,51.98
2022-08-09T06:28:09.888Z,52.08
2022-08-09T06:30:36.495Z,52.05
2022-08-09T06:33:30.404Z,52.28
2022-08-09T06:35:57.123Z,52.39
2022-08-09T06:38:32.125Z,52.43
2022-08-09T06:41:04.561Z,52.78
2022-08-09T06:43:39.715Z,52.97
2022-08-09T06:46:10.858Z,53.19
2022-08-09T06:48:42.793Z,53.66
2022-08-09T06:51:10.206Z,53.76
2022-08-09T06:53:38.898Z,53.87
2022-08-09T06:56:06.858Z,54.29
2022-08-09T07:00:46.925Z,54.31
2022-08-09T07:01:21.421Z,54.48
2022-08-09T07:03:52.192Z,54.94
2022-08-09T07:06:19.743Z,55.23
2022-08-09T07:08:49.534Z,54.74
2022-08-09T07:11:17.719Z,55.28
2022-08-09T07:14:05.733Z,54.68
2022-08-09T07:16:41.577Z,55.10
2022-08-09T07:19:09.995Z,54.98
2022-08-09T07:21:41.865Z,55.25
2022-08-09T07:24:32.096Z,54.82
2022-08-09T07:27:00.445Z,55.29
2022-08-09T07:29:37.667Z,55.12
2022-08-09T07:32:05.861Z,55.44
2022-08-09T07:34:32.539Z,55.01
2022-08-09T07:37:02.748Z,55.70
2022-08-09T07:39:41.644Z,55.77
2022-08-09T07:42:09.288Z,55.58
2022-08-09T07:44:52.494Z,55.72
2022-08-09T07:47:21.364Z,56.04
2022-08-09T07:50:05.412Z,55.63
2022-08-09T07:52:36.014Z,55.89
2022-08-09T07:55:09.753Z,55.56
2022-08-09T07:57:46.965Z,55.65
2022-08-09T08:00:20.803Z,56.00
2022-08-09T08:03:04.462Z,56.04
2022-08-09T08:05:39.212Z,55.88
2022-08-09T08:09:01.360Z,55.90
2022-08-09T08:12:11.390Z,56.21
2022-08-09T08:13:56.215Z,55.91
2022-08-09T08:16:31.384Z,55.94
2022-08-09T08:18:58.946Z,55.84
2022-08-09T08:21:25.534Z,55.70
2022-08-09T08:23:55.911Z,55.79
2022-08-09T08:26:41.999Z,55.79
2022-08-09T08:29:10.677Z,55.78
2022-08-09T08:31:39.425Z,55.72
2022-08-09T08:34:25.384Z,55.66
2022-08-09T08:36:52.414Z,55.92
2022-08-09T08:39:18.943Z,55.55
2022-08-09T08:41:52.417Z,55.66
2022-08-09T08:44:27.249Z,55.58
2022-08-09T08:47:03.398Z,55.79
2022-08-09T08:49:48.054Z,55.71
2022-08-09T08:52:52.953Z,55.62
2022-08-09T08:55:05.648Z,55.66
2022-08-09T08:57:35.464Z,55.63
2022-08-09T09:00:08.205Z,55.60
2022-08-09T09:02:44.882Z,55.70
2022-08-09T09:05:22.179Z,55.65
2022-08-09T09:08:02.295Z,55.52
2022-08-09T09:10:30.076Z,55.36
2022-08-09T09:12:59.586Z,55.38
2022-08-09T09:15:37.617Z,55.43
2022-08-09T09:18:04.158Z,55.36
2022-08-09T09:20:34.632Z,55.26
2022-08-09T09:23:03.044Z,55.08
2022-08-09T09:26:01.442Z,55.13
2022-08-09T09:29:02.942Z,55.08
2022-08-09T09:31:17.235Z,54.81
2022-08-09T09:34:10.046Z,54.80
2022-08-09T09:36:51.104Z,54.71
2022-08-09T09:39:21.506Z,54.57
2022-08-09T09:41:49.744Z,54.45
2022-08-09T09:44:27.889Z,54.41
2022-08-09T09:47:06.778Z,54.50
2022-08-09T09:50:07.422Z,54.04
2022-08-09T09:52:36.741Z,53.92
2022-08-09T09:55:16.236Z,53.94
2022-08-09T09:58:17.346Z,53.80
2022-08-09T10:00:53.701Z,53.65
2022-08-09T10:03:39.504Z,53.52
2022-08-09T10:06:06.938Z,53.56
2022-08-09T10:08:43.301Z,53.35
2022-08-09T10:11:59.414Z,53.15
2022-08-09T10:14:27.463Z,52.97
2022-08-09T10:17:40.303Z,52.86
2022-08-09T10:19:46.476Z,52.70
2022-08-09T10:22:13.074Z,52.72
2022-08-09T10:24:39.659Z,52.63
2022-08-09T10:27:10.339Z,52.52
2022-08-09T10:30:26.386Z,52.48
2022-08-09T10:32:48.524Z,52.21
2022-08-09T10:35:16.210Z,52.26
2022-08-09T10:37:44.336Z,52.05
2022-08-09T10:40:32.454Z,52.05
2022-08-09T10:42:59.924Z,51.98
2022-08-09T10:45:31.774Z,51.98
2022-08-09T10:48:25.915Z,52.08
2022-08-09T10:50:58.914Z,51.97
2022-08-09T10:53:46.895Z,51.82
2022-08-09T10:56:23.314Z,52.04
2022-08-09T10:58:51.027Z,52.03
2022-08-09T11:03:13.504Z,52.43
2022-08-09T11:04:31.252Z,52.06
2022-08-09T11:07:56.724Z,52.50
2022-08-09T11:10:15.132Z,52.32
2022-08-09T11:12:42.201Z,52.45
2022-08-09T11:15:24.395Z,52.41
2022-08-09T11:18:03.727Z,52.78
2022-08-09T11:20:41.451Z,52.82
2022-08-09T11:23:10.639Z,52.73
2022-08-09T11:25:46.135Z,52.76
2022-08-09T11:28:34.593Z,53.02
2022-08-09T11:31:36.522Z,53.13
2022-08-09T11:34:09.780Z,53.55
2022-08-09T11:36:42.327Z,53.47
2022-08-09T11:39:11.088Z,53.35
2022-08-09T11:41:40.473Z,53.39
2022-08-09T11:44:08.006Z,53.75
2022-08-09T11:46:58.113Z,54.14
2022-08-09T11:50:56.077Z,54.09
2022-08-09T11:53:57.486Z,54.10
2022-08-09T11:56:02.491Z,54.46
2022-08-09T11:58:48.186Z,54.56
2022-08-09T12:02:18.043Z,54.30
2022-08-09T12:04:08.779Z,54.75
2022-08-09T12:06:55.747Z,54.70
2022-08-09T12:09:26.172Z,54.90
2022-08-09T12:12:02.594Z,54.66
2022-08-09T12:14:40.499Z,54.82
2022-08-09T12:17:28.340Z,55.22
2022-08-09T12:20:12.592Z,55.33
2022-08-09T12:22:44.701Z,55.38
2022-08-09T12:25:12.508Z,55.40
2022-08-09T12:29:10.893Z,55.35
2022-08-09T12:30:36.749Z,55.34
2022-08-09T12:33:05.872Z,55.27
2022-08-09T12:35:40.255Z,55.53
2022-08-09T12:38:37.797Z,55.44
2022-08-09T12:41:05.402Z,55.57
2022-08-09T12:44:05.361Z,55.75
2022-08-09T12:46:23.411Z,55.44
2022-08-09T12:48:51.156Z,55.42
2022-08-09T12:51:30.292Z,55.42
2022-08-09T12:54:06.698Z,55.55
2022-08-09T12:56:50.986Z,55.51
2022-08-09T12:59:21.640Z,55.51
2022-08-09T13:02:01.339Z,55.13
2022-08-09T13:04:36.558Z,55.49
2022-08-09T13:07:13.391Z,55.83
2022-08-09T13:09:43.284Z,55.96
2022-08-09T13:12:19.930Z,55.92
2022-08-09T13:14:54.282Z,55.94
2022-08-09T13:18:03.229Z,56.00
2022-08-09T13:20:14.379Z,55.99
2022-08-09T13:23:01.156Z,56.11
2022-08-09T13:25:41.786Z,56.24
2022-08-09T13:28:10.478Z,56.13
2022-08-09T13:30:50.438Z,56.26
2022-08-09T13:33:51.667Z,56.54
2022-08-09T13:36:24.806Z,56.36
2022-08-09T13:39:08.186Z,56.43
2022-08-09T13:41:57.603Z,56.15
2022-08-09T13:44:27.108Z,56.17
2022-08-09T13:47:27.028Z,56.10
2022-08-09T13:49:57.680Z,56.30
2022-08-09T13:52:28.208Z,56.14
2022-08-09T13:55:00.745Z,56.11
2022-08-09T13:57:35.934Z,56.13
2022-08-09T14:00:08.192Z,55.97
2022-08-09T14:02:36.324Z,56.12
2022-08-09T14:05:10.422Z,56.07
2022-08-09T14:07:41.004Z,56.29
2022-08-09T14:10:17.529Z,56.18
2022-08-09T14:12:56.311Z,56.01
2022-08-09T14:16:10.131Z,55.95
2022-08-09T14:18:19.655Z,56.32
2022-08-09T14:20:54.129Z,56.19
2022-08-09T14:23:40.132Z,56.34
2022-08-09T14:26:06.984Z,56.35
2022-08-09T14:28:36.652Z,56.35
2022-08-09T14:31:03.303Z,56.19
2022-08-09T14:33:38.267Z,56.23
2022-08-09T14:36:19.835Z,56.27
2022-08-09T14:38:52.582Z,56.43
2022-08-09T14:41:39.814Z,56.45
2022-08-09T14:44:06.662Z,56.64
2022-08-09T14:47:01.074Z,56.55
2022-08-09T14:49:23.908Z,56.41
2022-08-09T14:51:50.637Z,56.62
2022-08-09T14:54:27.544Z,56.43
2022-08-09T14:56:57.727Z,56.17
2022-08-09T14:59:25.825Z,56.29
2022-08-09T15:01:53.878Z,56.46
2022-08-09T15:04:20.368Z,56.49
2022-08-09T15:06:51.751Z,56.33
2022-08-09T15:10:03.717Z,56.35
2022-08-09T15:12:07.777Z,56.49
2022-08-09T15:14:34.957Z,56.17
2022-08-09T15:17:05.450Z,56.63
2022-08-09T15:19:35.961Z,56.70
2022-08-09T15:22:04.215Z,56.76
2022-08-09T15:24:32.201Z,56.67
2022-08-09T15:26:59.424Z,56.73
2022-08-09T15:30:56.678Z,56.61
2022-08-09T15:32:29.580Z,56.73
2022-08-09T15:34:57.346Z,56.77
2022-08-09T15:37:36.926Z,56.77
2022-08-09T15:40:11.645Z,56.65
2022-08-09T15:42:39.547Z,56.79
2022-08-09T15:45:11.288Z,56.99
2022-08-09T15:47:51.442Z,57.05
2022-08-09T15:50:19.710Z,57.22
2022-08-09T15:52:55.134Z,57.01
2022-08-09T15:56:04.323Z,57.18
2022-08-09T15:58:26.730Z,57.09
2022-08-09T16:00:53.880Z,56.81
2022-08-09T16:03:29.570Z,57.15
2022-08-09T16:06:05.464Z,57.25
2022-08-09T16:08:33.377Z,57.15
2022-08-09T16:11:01.462Z,56.89
2022-08-09T16:14:04.018Z,56.88
2022-08-09T16:16:18.707Z,56.97
2022-08-09T16:18:45.779Z,57.15
2022-08-09T16:21:17.253Z,57.11
2022-08-09T16:23:55.764Z,57.15
2022-08-09T16:26:33.367Z,57.04
2022-08-09T16:29:01.168Z,57.04
2022-08-09T16:32:10.245Z,57.04
2022-08-09T16:34:24.118Z,56.92
2022-08-09T16:36:50.563Z,56.78
2022-08-09T16:39:18.363Z,56.82
2022-08-09T16:42:03.703Z,56.65
2022-08-09T16:44:32.083Z,56.66
2022-08-09T16:47:04.013Z,56.85
2022-08-09T16:50:29.087Z,56.60
2022-08-09T16:52:32.429Z,56.50
2022-08-09T16:55:00.416Z,56.44
2022-08-09T16:57:26.922Z,56.38
2022-08-09T17:00:14.755Z,56.46
2022-08-09T17:02:41.634Z,56.34
2022-08-09T17:05:10.267Z,56.21
2022-08-09T17:08:44.725Z,56.25
2022-08-09T17:10:27.702Z,56.11
2022-08-09T17:12:54.187Z,56.08
2022-08-09T17:15:59.035Z,56.15
2022-08-09T17:18:07.947Z,56.04
2022-08-09T17:20:42.398Z,56.04
2022-08-09T17:23:15.934Z,55.97
2022-08-09T17:25:44.319Z,55.84
2022-08-09T17:28:19.212Z,55.71
2022-08-09T17:30:47.856Z,55.71
2022-08-09T17:33:21.890Z,55.63
2022-08-09T17:35:50.011Z,55.62
2022-08-09T17:38:30.701Z,55.48
2022-08-09T17:41:02.963Z,55.26
2022-08-09T17:43:34.799Z,55.41
2022-08-09T17:46:06.113Z,55.16
2022-08-09T17:48:35.139Z,55.01
2022-08-09T17:51:10.305Z,54.88
2022-08-09T17:53:51.644Z,55.01
2022-08-09T17:56:21.591Z,54.94
2022-08-09T17:58:48.216Z,54.87
2022-08-09T18:01:15.677Z,54.97
2022-08-09T18:03:50.091Z,54.70
2022-08-09T18:06:31.079Z,54.82
2022-08-09T18:08:59.240Z,54.96
2022-08-09T18:11:27.018Z,54.65
2022-08-09T18:14:03.357Z,54.78
2022-08-09T18:16:34.733Z,54.83
2022-08-09T18:20:59.838Z,54.62
2022-08-09T18:21:58.093Z,54.65
2022-08-09T18:24:27.752Z,54.77
2022-08-09T18:26:55.468Z,54.77
2022-08-09T18:30:41.356Z,54.72
2022-08-09T18:32:08.938Z,54.90
2022-08-09T18:34:36.358Z,54.75
2022-08-09T18:37:03.624Z,54.88
2022-08-09T18:39:32.185Z,54.89
2022-08-09T18:42:01.249Z,54.90
2022-08-09T18:44:27.935Z,54.97
2022-08-09T18:47:08.201Z,55.25
2022-08-09T18:49:43.759Z,54.90
2022-08-09T18:52:14.100Z,55.07
2022-08-09T18:54:49.575Z,55.17
2022-08-09T18:57:22.773Z,55.09
2022-08-09T18:59:54.431Z,55.11
2022-08-09T19:02:30.478Z,55.01
2022-08-09T19:05:03.646Z,55.13
2022-08-09T19:07:40.858Z,55.18
2022-08-09T19:10:15.721Z,55.33
2022-08-09T19:12:50.011Z,55.38
2022-08-09T19:15:19.433Z,55.23
2022-08-09T19:17:54.308Z,55.07
2022-08-09T19:20:22.837Z,55.23
2022-08-09T19:22:50.430Z,55.53
2022-08-09T19:25:42.590Z,55.17
2022-08-09T19:28:12.999Z,55.42
2022-08-09T19:30:40.259Z,55.65
2022-08-09T19:33:17.975Z,55.41
2022-08-09T19:35:57.098Z,55.58
2022-08-09T19:38:25.395Z,55.64
2022-08-09T19:40:51.938Z,55.65
2022-08-09T19:44:01.642Z,55.66
2022-08-09T19:46:06.281Z,55.73
2022-08-09T19:49:00.470Z,55.96
2022-08-09T19:51:21.329Z,55.89
2022-08-09T19:53:48.225Z,55.92
2022-08-09T19:56:15.437Z,56.36
2022-08-09T19:58:56.516Z,56.42
2022-08-09T20:01:52.205Z,56.45
2022-08-09T20:04:25.120Z,56.44
2022-08-09T20:06:59.811Z,56.59
2022-08-09T20:09:45.302Z,56.67
2022-08-09T20:12:16.187Z,56.89
2022-08-09T20:14:58.083Z,56.95
2022-08-09T20:17:26.133Z,57.13
2022-08-09T20:19:57.497Z,57.22
2022-08-09T20:22:24.194Z,57.28
2022-08-09T20:24:58.752Z,57.33
2022-08-09T20:27:29.324Z,57.28
2022-08-09T20:29:55.973Z,57.28
2022-08-09T20:32:40.876Z,57.57
2022-08-09T20:35:11.734Z,57.43
2022-08-09T20:38:22.564Z,57.56
2022-08-09T20:40:27.191Z,57.55
2022-08-09T20:43:11.899Z,57.64
2022-08-09T20:46:01.407Z,57.80
2022-08-09T20:48:31.135Z,57.84
2022-08-09T20:50:58.518Z,58.06
2022-08-09T20:53:37.095Z,58.14
2022-08-09T20:56:06.395Z,58.11
2022-08-09T20:58:35.862Z,57.96
2022-08-09T21:01:32.799Z,58.26
2022-08-09T21:05:49.246Z,58.03
2022-08-09T21:06:41.579Z,58.31
2022-08-09T21:09:13.412Z,58.13
2022-08-09T21:14:27.142Z,58.16
2022-08-09T21:16:57.823Z,58.10
2022-08-09T21:20:19.143Z,58.07
2022-08-09T21:22:36.115Z,58.39
2022-08-09T21:25:00.467Z,58.34
2022-08-09T21:27:51.189Z,58.27
2022-08-09T21:30:13.844Z,58.14
2022-08-09T21:32:45.283Z,58.24
2022-08-09T21:35:13.066Z,58.02
2022-08-09T21:37:40.557Z,58.15
2022-08-09T21:40:19.039Z,58.06
2022-08-09T21:42:57.474Z,58.16
2022-08-09T21:45:24.797Z,58.14
2022-08-09T21:47:52.194Z,58.12
2022-08-09T21:50:36.191Z,58.26
2022-08-09T21:53:06.766Z,57.89
2022-08-09T21:55:50.546Z,57.95
2022-08-09T21:58:17.070Z,57.98
2022-08-09T22:00:43.846Z,58.03
2022-08-09T22:03:25.616Z,58.00
2022-08-09T22:05:54.379Z,58.03
2022-08-09T22:08:23.026Z,58.04
2022-08-09T22:11:00.238Z,57.87
2022-08-09T22:13:39.353Z,58.07
2022-08-09T22:16:10.374Z,58.08
2022-08-09T22:18:38.300Z,58.17
2022-08-09T22:21:09.940Z,58.07
2022-08-09T22:23:58.997Z,58.09
2022-08-09T22:26:34.936Z,58.08
2022-08-09T22:29:07.146Z,57.98
2022-08-09T22:31:34.564Z,58.02
2022-08-09T22:34:01.275Z,58.06
2022-08-09T22:36:29.055Z,57.92
2022-08-09T22:39:11.736Z,58.11
2022-08-09T22:41:58.158Z,58.02
2022-08-09T22:44:25.223Z,58.08
2022-08-09T22:48:15.521Z,58.02
2022-08-09T22:49:45.375Z,57.91
2022-08-09T22:52:13.175Z,57.91
2022-08-09T22:54:42.300Z,58.02
2022-08-09T22:57:13.358Z,58.00
2022-08-09T22:59:58.317Z,57.89
2022-08-09T23:02:25.861Z,57.94
2022-08-09T23:04:54.688Z,57.99
2022-08-09T23:07:31.041Z,57.76
2022-08-09T23:10:12.373Z,57.73
2022-08-09T23:12:38.882Z,57.80
2022-08-09T23:15:05.869Z,57.73
2022-08-09T23:17:32.700Z,57.62
2022-08-09T23:20:07.267Z,57.83
2022-08-09T23:22:36.131Z,57.97
2022-08-09T23:25:02.823Z,57.63
2022-08-09T23:27:29.424Z,57.82
2022-08-09T23:29:55.881Z,57.67
2022-08-09T23:32:22.339Z,57.69
2022-08-09T23:34:48.918Z,57.51
2022-08-09T23:37:15.389Z,57.49
2022-08-09T23:39:45.564Z,57.50
2022-08-09T23:42:12.089Z,57.57
2022-08-09T23:44:38.581Z,57.38
2022-08-09T23:47:05.164Z,57.18
2022-08-09T23:49:31.649Z,57.44
2022-08-09T23:51:58.207Z,57.47
2022-08-09T23:54:26.764Z,57.32
2022-08-09T23:56:56.139Z,57.28
2022-08-09T23:59:25.623Z,57.20
